Time;durP1;ratioP1;P1;durP2;ratioP2;P2;SDS_P1;SDS_P2;PMS_P1;PMS_P2;Temp;Humidity;BMP_temperature;BMP_pressure;BME280_temperature;BME280_humidity;BME280_pressure;Samples;Min_cycle;Max_cycle;Signal;HPM_P1;HPM_P2
2022/12/30 00:01:08;;;;;;;13.40;2.50;;;;;;;;;;5063143;28;20409;-82
2022/12/30 00:03:35;;;;;;;16.70;2.20;;;;;;;;;;5059169;28;20080;-83
2022/12/30 00:06:02;;;;;;;14.07;2.22;;;;;;;;;;5069960;28;20064;-83
2022/12/30 00:08:47;;;;;;;11.98;2.42;;;;;;;;;;5068324;28;20123;-84
2022/12/30 00:11:15;;;;;;;10.05;2.38;;;;;;;;;;5040210;28;20582;-84
2022/12/30 00:33:28;;;;;;;13.65;2.25;;;;;;;;;;5075503;28;20152;-84
2022/12/30 00:35:55;;;;;;;10.75;2.40;;;;;;;;;;5074870;28;20045;-82
2022/12/30 00:38:22;;;;;;;14.80;2.42;;;;;;;;;;5073507;28;20134;-83
2022/12/30 00:43:33;;;;;;;10.50;1.90;;;;;;;;;;5066707;28;20072;-82
2022/12/30 00:46:00;;;;;;;16.00;2.33;;;;;;;;;;5055008;28;20065;-84
2022/12/30 00:56:44;;;;;;;12.35;2.42;;;;;;;;;;5073973;28;20158;-83
2022/12/30 00:59:11;;;;;;;9.75;2.20;;;;;;;;;;5055996;28;20460;-82
2022/12/30 01:01:37;;;;;;;12.52;2.85;;;;;;;;;;5074916;28;20103;-84
2022/12/30 01:04:04;;;;;;;11.45;2.05;;;;;;;;;;5072129;28;20053;-84
2022/12/30 01:06:30;;;;;;;17.55;1.98;;;;;;;;;;5075307;28;20049;-83
2022/12/30 01:08:57;;;;;;;12.52;2.22;;;;;;;;;;5066314;28;20093;-83
2022/12/30 01:11:23;;;;;;;11.27;2.03;;;;;;;;;;5055485;28;20080;-82
2022/12/30 01:13:49;;;;;;;10.85;2.28;;;;;;;;;;5073936;28;20597;-82
2022/12/30 01:16:16;;;;;;;12.85;2.00;;;;;;;;;;5074669;28;20061;-82
2022/12/30 01:18:43;;;;;;;13.57;2.30;;;;;;;;;;5071661;28;20067;-84
2022/12/30 01:21:10;;;;;;;11.32;2.00;;;;;;;;;;5046202;28;20072;-82
2022/12/30 01:23:36;;;;;;;12.50;1.80;;;;;;;;;;5068612;28;20232;-82
2022/12/30 01:26:04;;;;;;;9.55;1.60;;;;;;;;;;5074477;28;20148;-82
2022/12/30 01:28:31;;;;;;;18.40;1.92;;;;;;;;;;5074437;28;20119;-82
2022/12/30 01:30:58;;;;;;;14.25;2.35;;;;;;;;;;5075148;28;21013;-83
2022/12/30 01:33:25;;;;;;;12.20;1.77;;;;;;;;;;5050687;28;20077;-82
2022/12/30 01:35:52;;;;;;;12.50;1.88;;;;;;;;;;5061175;28;20124;-83
2022/12/30 01:38:18;;;;;;;12.68;1.77;;;;;;;;;;5067253;28;20061;-82
2022/12/30 01:40:45;;;;;;;14.07;1.75;;;;;;;;;;5053284;28;20172;-84
2022/12/30 01:43:12;;;;;;;11.65;1.75;;;;;;;;;;5048142;28;20869;-82
2022/12/30 01:45:39;;;;;;;10.45;1.77;;;;;;;;;;5068464;28;20052;-83
2022/12/30 01:48:17;;;;;;;11.32;2.10;;;;;;;;;;5070669;28;20049;-84
2022/12/30 01:50:46;;;;;;;11.50;2.00;;;;;;;;;;5053785;28;20133;-83
2022/12/30 01:53:14;;;;;;;11.60;1.80;;;;;;;;;;5057193;28;20061;-83
2022/12/30 01:55:44;;;;;;;12.77;1.85;;;;;;;;;;5069640;28;20069;-82
2022/12/30 01:58:15;;;;;;;13.23;2.20;;;;;;;;;;5070108;28;20044;-82
2022/12/30 02:00:41;;;;;;;13.40;1.83;;;;;;;;;;5070879;28;20543;-82
2022/12/30 02:03:08;;;;;;;9.50;1.85;;;;;;;;;;5051479;28;20183;-84
2022/12/30 02:05:36;;;;;;;10.32;1.70;;;;;;;;;;5071327;28;20192;-82
2022/12/30 02:08:08;;;;;;;14.30;2.47;;;;;;;;;;5069206;28;20431;-83
2022/12/30 02:10:36;;;;;;;16.60;2.20;;;;;;;;;;5071134;28;20084;-82
2022/12/30 02:13:02;;;;;;;9.65;2.25;;;;;;;;;;5067320;28;20060;-84
2022/12/30 02:15:30;;;;;;;11.90;2.30;;;;;;;;;;5068396;28;20057;-82
2022/12/30 02:18:02;;;;;;;12.25;2.03;;;;;;;;;;5068301;28;20107;-83
2022/12/30 02:20:44;;;;;;;10.75;2.25;;;;;;;;;;5037727;28;20102;-84
2022/12/30 02:23:10;;;;;;;12.57;2.10;;;;;;;;;;5070510;28;20061;-82
2022/12/30 02:25:49;;;;;;;11.25;2.30;;;;;;;;;;5064692;28;20520;-82
2022/12/30 02:33:56;;;;;;;14.03;2.13;;;;;;;;;;6279708;22;1678684;-81
2022/12/30 02:36:38;;;;;;;10.93;2.10;;;;;;;;;;6318427;22;20240;-83
2022/12/30 02:39:07;;;;;;;11.02;2.35;;;;;;;;;;6346662;22;20451;-82
2022/12/30 02:44:38;;;;;;;10.73;2.17;;;;;;;;;;6346055;22;20034;-82
2022/12/30 02:47:08;;;;;;;12.57;2.15;;;;;;;;;;6345699;22;20025;-81
2022/12/30 02:49:36;;;;;;;18.88;2.58;;;;;;;;;;6346584;22;20023;-82
2022/12/30 02:52:14;;;;;;;10.65;1.77;;;;;;;;;;6345170;22;20057;-81
2022/12/30 02:54:45;;;;;;;10.98;2.45;;;;;;;;;;6347194;22;20030;-81
2022/12/30 02:57:28;;;;;;;13.88;2.33;;;;;;;;;;6345388;22;20031;-81
2022/12/30 03:05:50;;;;;;;9.95;2.25;;;;;;;;;;6345929;22;20029;-81
2022/12/30 03:08:20;;;;;;;14.30;2.55;;;;;;;;;;6317731;22;20535;-83
2022/12/30 03:13:38;;;;;;;9.95;2.17;;;;;;;;;;6345221;22;20483;-82
2022/12/30 03:16:07;;;;;;;15.57;2.53;;;;;;;;;;6345578;22;20015;-83
2022/12/30 03:18:34;;;;;;;14.13;2.15;;;;;;;;;;6346350;22;20028;-81
2022/12/30 03:21:02;;;;;;;9.25;2.45;;;;;;;;;;6344435;22;20061;-81
2022/12/30 03:29:02;;;;;;;12.82;2.78;;;;;;;;;;6345415;22;20073;-82
2022/12/30 03:31:30;;;;;;;15.63;2.53;;;;;;;;;;6344824;22;20057;-83
2022/12/30 03:33:56;;;;;;;11.50;2.22;;;;;;;;;;6345518;22;20031;-82
2022/12/30 03:36:25;;;;;;;8.35;2.17;;;;;;;;;;6345383;22;20022;-81
2022/12/30 03:38:55;;;;;;;9.25;2.15;;;;;;;;;;6340781;22;20028;-81
2022/12/30 03:41:22;;;;;;;12.52;2.30;;;;;;;;;;6337851;22;20568;-81
2022/12/30 03:43:49;;;;;;;12.48;2.03;;;;;;;;;;6338357;22;20128;-82
2022/12/30 03:46:18;;;;;;;12.40;2.47;;;;;;;;;;6336056;22;20511;-81
2022/12/30 03:48:44;;;;;;;18.27;2.72;;;;;;;;;;6337888;22;20059;-83
2022/12/30 03:51:11;;;;;;;11.90;2.40;;;;;;;;;;6338356;22;20033;-82
2022/12/30 03:53:37;;;;;;;18.45;2.42;;;;;;;;;;6310691;22;20023;-82
2022/12/30 03:56:03;;;;;;;13.43;1.98;;;;;;;;;;6337767;22;20058;-82
2022/12/30 03:58:30;;;;;;;11.68;2.38;;;;;;;;;;6338761;22;20046;-81
2022/12/30 04:00:56;;;;;;;12.73;2.40;;;;;;;;;;6338351;22;20481;-82
2022/12/30 04:03:23;;;;;;;13.45;2.28;;;;;;;;;;6339619;22;20443;-83
2022/12/30 04:05:52;;;;;;;13.27;2.30;;;;;;;;;;6336710;22;20031;-83
2022/12/30 04:08:19;;;;;;;11.57;2.80;;;;;;;;;;6338112;22;20759;-82
2022/12/30 04:10:46;;;;;;;14.13;2.67;;;;;;;;;;6338398;22;20023;-82
2022/12/30 04:13:12;;;;;;;8.93;1.90;;;;;;;;;;6338064;22;20049;-81
2022/12/30 04:15:39;;;;;;;13.07;1.92;;;;;;;;;;6338053;22;20073;-82
2022/12/30 04:18:05;;;;;;;8.70;2.00;;;;;;;;;;6338180;22;20026;-81
2022/12/30 04:20:31;;;;;;;15.82;2.50;;;;;;;;;;6311199;22;20591;-81
2022/12/30 04:22:58;;;;;;;10.15;2.30;;;;;;;;;;6338426;22;20284;-81
2022/12/30 04:25:25;;;;;;;14.55;2.15;;;;;;;;;;6310168;22;20075;-83
2022/12/30 04:27:51;;;;;;;19.40;2.22;;;;;;;;;;6337088;22;20023;-81
2022/12/30 04:30:18;;;;;;;11.98;2.22;;;;;;;;;;6336750;22;20030;-82
2022/12/30 04:32:44;;;;;;;15.23;2.88;;;;;;;;;;6330836;22;20104;-81
2022/12/30 04:35:11;;;;;;;16.63;2.10;;;;;;;;;;6335338;22;20020;-83
2022/12/30 04:37:37;;;;;;;11.70;2.17;;;;;;;;;;6338532;22;20016;-82
2022/12/30 04:40:04;;;;;;;13.52;2.10;;;;;;;;;;6310334;22;20027;-82
2022/12/30 04:42:30;;;;;;;12.13;2.17;;;;;;;;;;6337240;22;20476;-81
2022/12/30 04:44:57;;;;;;;18.85;2.75;;;;;;;;;;6338284;22;20047;-82
2022/12/30 04:47:23;;;;;;;13.50;2.63;;;;;;;;;;6310316;22;20491;-81
2022/12/30 04:49:49;;;;;;;15.30;2.03;;;;;;;;;;6337511;22;20023;-83
2022/12/30 04:52:16;;;;;;;12.55;2.40;;;;;;;;;;6337626;22;20027;-82
2022/12/30 04:54:42;;;;;;;15.93;2.67;;;;;;;;;;6338448;22;20097;-81
2022/12/30 04:57:08;;;;;;;9.32;1.90;;;;;;;;;;6337426;22;20478;-82
2022/12/30 04:59:35;;;;;;;15.25;2.60;;;;;;;;;;6337035;22;20023;-81
2022/12/30 05:02:01;;;;;;;18.58;2.00;;;;;;;;;;6337983;22;20057;-81
2022/12/30 05:04:28;;;;;;;15.13;2.00;;;;;;;;;;6337922;22;20046;-81
2022/12/30 05:06:54;;;;;;;12.57;2.67;;;;;;;;;;6338315;22;20026;-82
2022/12/30 05:09:21;;;;;;;15.32;2.10;;;;;;;;;;6337867;22;20479;-81
2022/12/30 05:11:48;;;;;;;16.92;2.38;;;;;;;;;;6336812;22;20042;-82
2022/12/30 05:14:14;;;;;;;13.40;2.20;;;;;;;;;;6337640;22;20030;-82
2022/12/30 05:16:41;;;;;;;20.38;2.83;;;;;;;;;;6337396;22;20023;-83
2022/12/30 05:19:08;;;;;;;10.27;2.20;;;;;;;;;;6337740;22;20030;-82
2022/12/30 05:21:34;;;;;;;10.27;2.20;;;;;;;;;;6337030;22;20019;-82
2022/12/30 05:26:46;;;;;;;16.83;2.65;;;;;;;;;;6336029;22;20027;-81
2022/12/30 05:29:12;;;;;;;14.02;2.38;;;;;;;;;;6337954;22;20110;-82
2022/12/30 05:31:39;;;;;;;12.35;2.17;;;;;;;;;;6337703;22;20088;-80
2022/12/30 05:34:05;;;;;;;12.35;2.10;;;;;;;;;;6309914;22;20030;-81
2022/12/30 05:36:35;;;;;;;14.75;2.08;;;;;;;;;;6310313;22;20096;-82
2022/12/30 05:39:01;;;;;;;10.63;2.30;;;;;;;;;;6337417;22;20031;-81
2022/12/30 05:41:28;;;;;;;12.07;1.77;;;;;;;;;;6337112;22;20023;-82
2022/12/30 05:43:54;;;;;;;15.27;2.17;;;;;;;;;;6337723;22;20103;-81
2022/12/30 05:46:21;;;;;;;13.30;1.98;;;;;;;;;;6337195;22;20066;-83
2022/12/30 05:48:48;;;;;;;15.23;2.17;;;;;;;;;;6337460;22;20019;-81
2022/12/30 05:51:14;;;;;;;9.30;1.77;;;;;;;;;;6337233;22;20536;-81
2022/12/30 05:53:41;;;;;;;13.52;2.03;;;;;;;;;;6337596;22;20055;-83
2022/12/30 05:56:07;;;;;;;11.82;2.42;;;;;;;;;;6337375;22;20138;-82
2022/12/30 05:58:34;;;;;;;13.00;2.28;;;;;;;;;;6309302;22;20479;-81
2022/12/30 06:01:00;;;;;;;14.93;1.92;;;;;;;;;;6336786;22;20019;-81
2022/12/30 06:03:28;;;;;;;9.73;2.05;;;;;;;;;;6337040;22;20041;-82
2022/12/30 06:05:59;;;;;;;15.38;2.17;;;;;;;;;;6337378;22;20035;-81
2022/12/30 06:08:25;;;;;;;15.70;2.47;;;;;;;;;;6310384;22;20077;-81
2022/12/30 06:10:52;;;;;;;17.05;2.50;;;;;;;;;;6338185;22;20430;-83
2022/12/30 06:13:18;;;;;;;11.93;2.25;;;;;;;;;;6309782;22;20514;-82
2022/12/30 06:15:44;;;;;;;10.07;2.47;;;;;;;;;;6336649;22;20019;-81
2022/12/30 06:18:11;;;;;;;14.18;2.40;;;;;;;;;;6336824;22;20081;-82
2022/12/30 06:20:37;;;;;;;13.57;2.25;;;;;;;;;;6337732;22;20023;-83
2022/12/30 06:23:04;;;;;;;7.65;2.05;;;;;;;;;;6336575;22;20110;-81
2022/12/30 06:25:33;;;;;;;17.67;3.20;;;;;;;;;;6337710;22;20081;-81
2022/12/30 06:28:00;;;;;;;14.50;2.30;;;;;;;;;;6336755;22;20027;-81
2022/12/30 06:30:26;;;;;;;10.05;2.05;;;;;;;;;;6336865;22;20027;-82
2022/12/30 06:32:58;;;;;;;13.40;1.98;;;;;;;;;;6336549;22;20240;-82
2022/12/30 06:35:24;;;;;;;14.70;2.53;;;;;;;;;;6338529;22;20106;-82
2022/12/30 06:37:51;;;;;;;9.57;2.40;;;;;;;;;;6337078;22;20486;-82
2022/12/30 06:40:17;;;;;;;12.75;2.47;;;;;;;;;;6336985;22;20564;-83
2022/12/30 06:42:44;;;;;;;14.25;3.08;;;;;;;;;;6336741;22;20046;-83
2022/12/30 06:45:10;;;;;;;17.13;3.17;;;;;;;;;;6335949;22;20034;-82
2022/12/30 06:47:37;;;;;;;23.23;2.85;;;;;;;;;;6337086;22;20813;-82
2022/12/30 06:50:03;;;;;;;13.15;3.10;;;;;;;;;;6337511;22;20016;-83
2022/12/30 06:52:30;;;;;;;13.60;2.75;;;;;;;;;;6336453;22;20078;-82
2022/12/30 06:54:56;;;;;;;9.75;2.88;;;;;;;;;;6337800;22;20023;-82
2022/12/30 06:57:23;;;;;;;17.55;2.80;;;;;;;;;;6336784;22;20102;-82
2022/12/30 06:59:49;;;;;;;20.77;3.70;;;;;;;;;;6308077;22;20054;-82
2022/12/30 07:02:15;;;;;;;19.10;3.13;;;;;;;;;;6309738;22;20030;-81
2022/12/30 07:04:42;;;;;;;20.73;3.00;;;;;;;;;;6336897;22;20070;-81
2022/12/30 07:07:08;;;;;;;13.02;3.05;;;;;;;;;;6336540;22;20034;-82
2022/12/30 07:09:35;;;;;;;16.98;3.13;;;;;;;;;;6337488;22;20577;-83
2022/12/30 07:12:01;;;;;;;23.55;3.30;;;;;;;;;;6336216;22;20035;-82
2022/12/30 07:14:27;;;;;;;13.27;3.30;;;;;;;;;;6335736;22;20701;-82
2022/12/30 07:16:54;;;;;;;13.77;3.00;;;;;;;;;;6336497;22;20085;-82
2022/12/30 07:19:20;;;;;;;17.58;3.20;;;;;;;;;;6335562;22;20549;-81
2022/12/30 07:21:46;;;;;;;14.95;2.85;;;;;;;;;;6336873;22;20102;-81
2022/12/30 07:24:13;;;;;;;16.80;3.13;;;;;;;;;;6309131;22;20034;-82
2022/12/30 07:26:39;;;;;;;16.98;3.95;;;;;;;;;;6336239;22;20510;-82
2022/12/30 07:29:06;;;;;;;17.15;3.03;;;;;;;;;;6335900;22;20058;-83
2022/12/30 07:31:32;;;;;;;16.65;2.63;;;;;;;;;;6334396;22;20391;-82
2022/12/30 07:33:59;;;;;;;14.80;2.63;;;;;;;;;;6306774;22;20026;-83
2022/12/30 07:36:25;;;;;;;11.13;2.45;;;;;;;;;;6335457;22;20074;-81
2022/12/30 07:38:51;;;;;;;11.73;2.47;;;;;;;;;;6335519;22;20019;-82
2022/12/30 07:41:18;;;;;;;12.82;2.33;;;;;;;;;;6338622;22;20036;-82
2022/12/30 07:43:44;;;;;;;16.23;3.13;;;;;;;;;;6309395;22;20046;-81
2022/12/30 07:46:10;;;;;;;24.02;2.67;;;;;;;;;;6335321;22;20023;-82
2022/12/30 07:48:37;;;;;;;16.92;2.80;;;;;;;;;;6335806;22;20044;-82
2022/12/30 07:51:08;;;;;;;14.15;3.00;;;;;;;;;;6337176;22;20680;-81
2022/12/30 07:53:34;;;;;;;13.90;2.42;;;;;;;;;;6336075;22;20027;-82
2022/12/30 07:56:09;;;;;;;11.60;2.80;;;;;;;;;;6309033;22;20541;-82
2022/12/30 07:58:35;;;;;;;14.88;2.92;;;;;;;;;;6309522;22;20031;-81
2022/12/30 08:01:05;;;;;;;14.60;2.70;;;;;;;;;;6338652;22;20034;-82
2022/12/30 08:03:32;;;;;;;11.05;2.97;;;;;;;;;;6337783;22;20027;-81
2022/12/30 08:06:06;;;;;;;11.60;2.40;;;;;;;;;;6337829;22;20150;-81
2022/12/30 08:08:33;;;;;;;8.48;2.17;;;;;;;;;;6337419;22;20590;-81
2022/12/30 08:11:00;;;;;;;10.88;2.38;;;;;;;;;;6338317;22;20036;-81
2022/12/30 08:13:27;;;;;;;9.18;2.28;;;;;;;;;;6336129;22;20034;-81
2022/12/30 08:15:53;;;;;;;16.70;2.72;;;;;;;;;;6337753;22;20072;-81
2022/12/30 08:18:20;;;;;;;14.88;2.47;;;;;;;;;;6308725;22;20027;-81
2022/12/30 08:20:46;;;;;;;13.65;3.20;;;;;;;;;;6336681;22;20165;-81
2022/12/30 08:23:12;;;;;;;13.88;2.50;;;;;;;;;;6337984;22;20027;-81
2022/12/30 08:25:39;;;;;;;14.30;3.13;;;;;;;;;;6337666;22;20508;-81
2022/12/30 08:28:05;;;;;;;11.48;2.90;;;;;;;;;;6336721;22;20030;-81
2022/12/30 08:30:38;;;;;;;10.98;2.60;;;;;;;;;;6337227;22;20848;-81
2022/12/30 08:33:04;;;;;;;14.95;2.83;;;;;;;;;;6309761;22;20022;-81
2022/12/30 08:35:31;;;;;;;7.68;2.63;;;;;;;;;;6310189;22;20102;-81
2022/12/30 08:37:57;;;;;;;10.65;2.42;;;;;;;;;;6338109;22;20033;-81
2022/12/30 08:40:24;;;;;;;10.90;2.60;;;;;;;;;;6336383;22;20090;-81
2022/12/30 08:42:50;;;;;;;9.02;2.42;;;;;;;;;;6338381;22;20039;-81
2022/12/30 08:45:16;;;;;;;13.48;2.70;;;;;;;;;;6309707;22;20114;-81
2022/12/30 08:47:43;;;;;;;13.55;2.42;;;;;;;;;;6309293;22;20039;-81
2022/12/30 08:50:12;;;;;;;15.88;2.80;;;;;;;;;;6309117;22;20032;-81
2022/12/30 08:52:41;;;;;;;16.38;2.70;;;;;;;;;;6337907;22;20059;-81
2022/12/30 08:55:07;;;;;;;13.77;2.53;;;;;;;;;;6336915;22;20050;-81
2022/12/30 08:57:37;;;;;;;9.32;2.20;;;;;;;;;;6309979;22;20028;-81
2022/12/30 09:00:03;;;;;;;11.73;2.60;;;;;;;;;;6338048;22;20590;-81
2022/12/30 09:02:33;;;;;;;10.75;2.40;;;;;;;;;;6337427;22;20030;-81
2022/12/30 09:05:00;;;;;;;15.93;4.00;;;;;;;;;;6338054;22;20027;-81
2022/12/30 09:07:30;;;;;;;11.98;2.75;;;;;;;;;;6336633;22;20023;-81
2022/12/30 09:10:16;;;;;;;16.48;2.60;;;;;;;;;;6336561;22;20031;-81
2022/12/30 09:12:42;;;;;;;9.65;2.55;;;;;;;;;;6336956;22;20106;-81
2022/12/30 09:15:09;;;;;;;10.05;2.50;;;;;;;;;;6337323;22;20023;-81
2022/12/30 09:17:35;;;;;;;10.65;2.53;;;;;;;;;;6337525;22;20061;-82
2022/12/30 09:20:02;;;;;;;11.43;2.97;;;;;;;;;;6337053;22;20019;-81
2022/12/30 09:22:28;;;;;;;13.15;2.80;;;;;;;;;;6337923;22;20030;-81
2022/12/30 09:24:54;;;;;;;10.65;2.38;;;;;;;;;;6337107;22;20639;-81
2022/12/30 09:27:20;;;;;;;8.38;2.47;;;;;;;;;;6339220;22;20024;-81
2022/12/30 09:29:47;;;;;;;12.05;2.45;;;;;;;;;;6338930;22;20058;-80
2022/12/30 09:32:13;;;;;;;14.60;3.60;;;;;;;;;;6336426;22;20019;-81
2022/12/30 09:34:41;;;;;;;9.15;2.78;;;;;;;;;;6337699;22;20029;-81
2022/12/30 09:37:08;;;;;;;15.80;3.05;;;;;;;;;;6309629;22;20027;-81
2022/12/30 09:39:45;;;;;;;8.27;2.25;;;;;;;;;;6339029;22;20033;-81
2022/12/30 09:45:23;;;;;;;13.48;2.95;;;;;;;;;;6338401;22;20027;-81
2022/12/30 09:47:54;;;;;;;11.83;2.97;;;;;;;;;;6320223;22;20468;-81
2022/12/30 09:50:37;;;;;;;12.30;2.50;;;;;;;;;;6338302;22;20027;-81
2022/12/30 09:53:13;;;;;;;10.57;2.38;;;;;;;;;;6309017;22;20110;-81
2022/12/30 09:55:51;;;;;;;8.25;2.63;;;;;;;;;;6309836;22;20023;-80
2022/12/30 09:58:26;;;;;;;7.00;2.35;;;;;;;;;;6338001;22;20039;-80
2022/12/30 10:00:53;;;;;;;13.43;2.25;;;;;;;;;;6311054;22;20054;-81
2022/12/30 10:03:21;;;;;;;10.05;2.30;;;;;;;;;;6310269;22;20055;-81
2022/12/30 10:06:18;;;;;;;10.15;2.40;;;;;;;;;;6336338;22;20050;-81
2022/12/30 10:08:47;;;;;;;15.05;2.45;;;;;;;;;;6338407;22;20079;-81
2022/12/30 10:11:26;;;;;;;9.65;2.08;;;;;;;;;;6338402;22;20057;-82
2022/12/30 10:13:56;;;;;;;9.68;1.98;;;;;;;;;;6338379;22;20023;-82
2022/12/30 10:16:41;;;;;;;7.85;2.00;;;;;;;;;;6336145;22;20026;-81
2022/12/30 10:19:13;;;;;;;9.38;2.33;;;;;;;;;;6338013;22;20071;-81
2022/12/30 10:21:43;;;;;;;11.63;2.05;;;;;;;;;;6336849;22;20057;-81
2022/12/30 10:24:20;;;;;;;8.20;1.77;;;;;;;;;;6336728;22;20049;-82
2022/12/30 10:26:48;;;;;;;6.60;1.95;;;;;;;;;;6336307;22;20484;-80
2022/12/30 10:29:19;;;;;;;8.30;2.38;;;;;;;;;;6308485;22;20562;-81
2022/12/30 10:31:50;;;;;;;7.63;1.70;;;;;;;;;;6337229;22;20027;-82
2022/12/30 10:34:18;;;;;;;10.52;1.58;;;;;;;;;;6338097;22;20109;-82
2022/12/30 10:36:51;;;;;;;8.15;1.58;;;;;;;;;;6310395;22;20023;-80
2022/12/30 10:39:22;;;;;;;4.30;1.20;;;;;;;;;;6336642;22;20034;-81
2022/12/30 10:41:56;;;;;;;6.13;1.40;;;;;;;;;;6313446;22;20026;-80
2022/12/30 10:44:32;;;;;;;6.68;1.65;;;;;;;;;;6336431;22;20054;-81
2022/12/30 10:47:17;;;;;;;3.95;1.30;;;;;;;;;;6337217;22;20023;-82
2022/12/30 10:50:02;;;;;;;5.70;1.50;;;;;;;;;;6337693;22;20028;-82
2022/12/30 10:52:29;;;;;;;7.70;1.42;;;;;;;;;;6310675;22;20033;-83
2022/12/30 10:54:56;;;;;;;6.43;1.50;;;;;;;;;;6311163;22;20096;-80
2022/12/30 10:57:24;;;;;;;6.13;1.45;;;;;;;;;;6337538;22;20030;-80
2022/12/30 10:59:54;;;;;;;8.50;1.40;;;;;;;;;;6339370;22;20030;-81
2022/12/30 11:02:28;;;;;;;4.63;1.00;;;;;;;;;;6339105;22;20023;-81
2022/12/30 11:04:54;;;;;;;4.05;1.33;;;;;;;;;;6339527;22;20016;-80
2022/12/30 11:07:21;;;;;;;5.65;1.40;;;;;;;;;;6310820;22;20018;-80
2022/12/30 11:09:47;;;;;;;7.25;1.50;;;;;;;;;;6338210;22;20055;-80
2022/12/30 11:15:13;;;;;;;;;;;;;;;;;;6337726;22;20717;-81
2022/12/30 11:17:44;;;;;;;6.47;1.45;;;;;;;;;;6308902;22;44217;-82
2022/12/30 11:20:13;;;;;;;3.95;1.13;;;;;;;;;;6336011;22;20062;-81
2022/12/30 11:22:46;;;;;;;4.45;1.23;;;;;;;;;;6335371;22;20026;-80
2022/12/30 11:25:27;;;;;;;5.55;1.50;;;;;;;;;;6335758;22;20113;-79
2022/12/30 11:27:55;;;;;;;6.78;1.50;;;;;;;;;;6337780;22;20027;-81
2022/12/30 11:30:24;;;;;;;5.25;1.10;;;;;;;;;;6310683;22;20486;-80
2022/12/30 11:32:52;;;;;;;5.68;1.23;;;;;;;;;;6311262;22;20073;-79
2022/12/30 11:35:34;;;;;;;8.02;1.58;;;;;;;;;;6338817;22;20059;-80
2022/12/30 11:38:00;;;;;;;7.68;1.42;;;;;;;;;;6337020;22;20030;-80
2022/12/30 11:40:36;;;;;;;8.45;1.52;;;;;;;;;;6339124;22;20027;-79
2022/12/30 11:43:16;;;;;;;6.38;1.40;;;;;;;;;;6339900;22;20031;-79
2022/12/30 11:45:57;;;;;;;6.80;1.42;;;;;;;;;;6339172;22;20050;-79
2022/12/30 11:48:36;;;;;;;5.10;1.38;;;;;;;;;;6338079;22;20035;-79
2022/12/30 11:51:14;;;;;;;6.60;1.27;;;;;;;;;;6337936;22;20530;-79
2022/12/30 11:53:41;;;;;;;10.13;1.50;;;;;;;;;;6338647;22;20071;-79
2022/12/30 11:56:07;;;;;;;10.20;2.17;;;;;;;;;;6338652;22;20034;-79
2022/12/30 11:58:35;;;;;;;9.38;1.40;;;;;;;;;;6337261;22;20043;-81
2022/12/30 12:01:06;;;;;;;5.30;1.63;;;;;;;;;;6339338;22;20507;-79
2022/12/30 12:03:44;;;;;;;9.95;1.92;;;;;;;;;;6338493;22;20027;-80
2022/12/30 12:06:11;;;;;;;8.93;1.30;;;;;;;;;;6338339;22;20098;-83
2022/12/30 12:08:41;;;;;;;8.23;1.73;;;;;;;;;;6337795;22;20087;-83
2022/12/30 12:11:11;;;;;;;9.73;1.80;;;;;;;;;;6339024;22;20023;-82
2022/12/30 12:13:44;;;;;;;10.02;1.58;;;;;;;;;;6310260;22;20487;-82
2022/12/30 12:16:29;;;;;;;6.55;1.42;;;;;;;;;;6337905;22;20030;-81
2022/12/30 12:19:01;;;;;;;4.20;1.27;;;;;;;;;;6337546;22;20070;-80
2022/12/30 12:21:32;;;;;;;6.32;1.20;;;;;;;;;;6336294;22;20097;-80
2022/12/30 12:24:16;;;;;;;38.38;17.65;;;;;;;;;;6336466;22;20027;-79
2022/12/30 12:26:42;;;;;;;;;;;;;;;;;;6337812;22;20037;-80
2022/12/30 12:29:11;;;;;;;8.50;1.52;;;;;;;;;;6339085;22;47491;-80
2022/12/30 12:31:37;;;;;;;5.70;1.35;;;;;;;;;;6338096;22;20468;-79
2022/12/30 12:34:30;;;;;;;19.73;7.55;;;;;;;;;;6338722;22;20023;-79
2022/12/30 12:36:57;;;;;;;37.20;17.40;;;;;;;;;;6337777;22;20133;-79
2022/12/30 12:39:49;;;;;;;14.65;5.85;;;;;;;;;;6311546;22;20027;-81
2022/12/30 12:42:36;;;;;;;27.40;11.00;;;;;;;;;;6289578;22;20023;-80
2022/12/30 12:45:05;;;;;;;26.27;11.02;;;;;;;;;;6338142;22;20047;-80
2022/12/30 12:47:46;;;;;;;13.75;4.05;;;;;;;;;;6338722;22;20094;-80
2022/12/30 12:50:31;;;;;;;6.03;1.50;;;;;;;;;;6338315;22;20069;-80
2022/12/30 12:53:16;;;;;;;7.03;1.65;;;;;;;;;;6338227;22;20427;-80
2022/12/30 12:56:02;;;;;;;6.82;1.25;;;;;;;;;;6311044;22;20023;-80
2022/12/30 12:58:33;;;;;;;9.13;1.95;;;;;;;;;;6336785;22;20027;-81
2022/12/30 13:01:18;;;;;;;11.50;2.20;;;;;;;;;;6337746;22;20042;-81
2022/12/30 13:03:48;;;;;;;9.63;1.83;;;;;;;;;;6336933;22;20047;-81
2022/12/30 13:06:25;;;;;;;10.38;2.20;;;;;;;;;;6338779;22;20027;-81
2022/12/30 13:09:01;;;;;;;8.60;1.85;;;;;;;;;;6337044;22;20019;-81
2022/12/30 13:11:43;;;;;;;8.18;1.90;;;;;;;;;;6338403;22;20023;-81
2022/12/30 13:14:12;;;;;;;9.80;2.35;;;;;;;;;;6338275;22;20431;-84
2022/12/30 13:16:41;;;;;;;9.40;1.88;;;;;;;;;;6338083;22;20458;-82
2022/12/30 13:19:12;;;;;;;8.63;2.13;;;;;;;;;;6310029;22;20031;-81
2022/12/30 13:21:38;;;;;;;;;;;;;;;;;;6336772;22;20521;-84
2022/12/30 13:24:06;;;;;;;13.73;2.72;;;;;;;;;;6333976;22;45776;-81
2022/12/30 13:26:33;;;;;;;9.43;2.53;;;;;;;;;;6309231;22;20077;-81
2022/12/30 13:29:01;;;;;;;9.00;4.00;;;;;;;;;;6337904;22;20023;-81
2022/12/30 13:31:33;;;;;;;12.32;3.45;;;;;;;;;;6337176;22;20310;-81
2022/12/30 13:34:10;;;;;;;10.43;3.03;;;;;;;;;;6309755;22;20081;-80
2022/12/30 13:37:02;;;;;;;6.07;2.00;;;;;;;;;;6338949;22;20601;-80
2022/12/30 13:39:37;;;;;;;8.77;2.35;;;;;;;;;;6323750;22;20027;-81
2022/12/30 13:42:22;;;;;;;13.48;1.67;;;;;;;;;;6338807;22;20023;-82
2022/12/30 13:44:48;;;;;;;8.90;1.85;;;;;;;;;;6338192;22;20247;-83
2022/12/30 13:47:23;;;;;;;9.43;2.13;;;;;;;;;;6339603;22;20042;-81
2022/12/30 13:49:56;;;;;;;5.57;1.63;;;;;;;;;;6336583;22;20483;-81
2022/12/30 13:52:26;;;;;;;5.85;1.60;;;;;;;;;;6340737;22;20070;-82
2022/12/30 13:54:57;;;;;;;7.45;1.95;;;;;;;;;;6338931;22;20023;-81
2022/12/30 13:57:43;;;;;;;6.35;1.77;;;;;;;;;;6338769;22;20116;-80
2022/12/30 14:00:18;;;;;;;6.57;1.30;;;;;;;;;;6338978;22;20031;-80
2022/12/30 14:02:56;;;;;;;4.85;1.13;;;;;;;;;;6340124;22;20049;-82
2022/12/30 14:05:29;;;;;;;7.63;1.27;;;;;;;;;;6338002;22;20027;-81
2022/12/30 14:07:58;;;;;;;8.27;1.48;;;;;;;;;;6337756;22;20027;-81
2022/12/30 14:10:28;;;;;;;9.40;1.80;;;;;;;;;;6338827;22;20145;-81
2022/12/30 14:13:16;;;;;;;5.60;1.50;;;;;;;;;;6339117;22;20102;-81
2022/12/30 14:15:42;;;;;;;4.75;1.30;;;;;;;;;;6311475;22;20027;-80
2022/12/30 14:18:13;;;;;;;5.50;1.40;;;;;;;;;;6337904;22;20368;-81
2022/12/30 14:20:40;;;;;;;6.00;1.60;;;;;;;;;;6338118;22;20174;-82
2022/12/30 14:23:27;;;;;;;9.05;1.58;;;;;;;;;;6336876;22;20023;-82
2022/12/30 14:26:13;;;;;;;8.63;1.90;;;;;;;;;;6337474;22;20019;-79
2022/12/30 14:28:42;;;;;;;5.43;1.85;;;;;;;;;;6338477;22;20038;-81
2022/12/30 14:31:26;;;;;;;9.05;2.90;;;;;;;;;;6338895;22;20093;-80
2022/12/30 14:33:54;;;;;;;12.88;3.53;;;;;;;;;;6338682;22;20123;-81
2022/12/30 14:36:21;;;;;;;6.63;2.00;;;;;;;;;;6337925;22;20484;-82
2022/12/30 14:38:51;;;;;;;7.38;1.90;;;;;;;;;;6311076;22;20027;-80
2022/12/30 14:41:20;;;;;;;4.65;2.03;;;;;;;;;;6310975;22;20033;-81
2022/12/30 14:44:05;;;;;;;6.75;1.98;;;;;;;;;;6338411;22;20008;-81
2022/12/30 14:46:36;;;;;;;10.02;1.88;;;;;;;;;;6337955;22;20030;-81
2022/12/30 14:49:09;;;;;;;5.93;1.60;;;;;;;;;;6338650;22;20416;-81
2022/12/30 14:51:36;;;;;;;6.03;1.40;;;;;;;;;;6338773;22;20029;-81
2022/12/30 14:54:03;;;;;;;8.25;1.60;;;;;;;;;;6337473;22;20023;-80
2022/12/30 14:56:30;;;;;;;11.77;3.90;;;;;;;;;;6337670;22;20572;-82
2022/12/30 14:58:57;;;;;;;6.10;1.95;;;;;;;;;;6310278;22;20106;-80
2022/12/30 15:01:23;;;;;;;6.70;1.98;;;;;;;;;;6337143;22;20030;-82
2022/12/30 15:04:08;;;;;;;6.22;2.05;;;;;;;;;;6337851;22;20051;-82
2022/12/30 15:06:35;;;;;;;5.38;2.08;;;;;;;;;;6336430;22;20011;-80
2022/12/30 15:09:06;;;;;;;3.78;1.63;;;;;;;;;;6339363;22;20556;-81
2022/12/30 15:11:36;;;;;;;;;;;;;;;;;;6339033;22;20023;-81
2022/12/30 15:14:02;;;;;;;5.30;1.60;;;;;;;;;;6337310;22;47813;-81
2022/12/30 15:16:31;;;;;;;5.30;1.98;;;;;;;;;;6338132;22;20024;-81
2022/12/30 15:18:58;;;;;;;8.02;2.30;;;;;;;;;;6338932;22;20491;-80
2022/12/30 15:21:32;;;;;;;6.65;2.78;;;;;;;;;;6310682;22;20081;-82
2022/12/30 15:23:59;;;;;;;5.22;2.00;;;;;;;;;;6337391;22;20027;-80
2022/12/30 15:26:45;;;;;;;6.22;2.22;;;;;;;;;;6309898;22;20015;-83
2022/12/30 15:29:15;;;;;;;5.05;2.08;;;;;;;;;;6337777;22;20023;-80
2022/12/30 15:31:48;;;;;;;3.63;1.63;;;;;;;;;;6309986;22;20118;-79
2022/12/30 15:34:14;;;;;;;;;;;;;;;;;;6336136;22;20518;-81
2022/12/30 15:36:41;;;;;;;5.25;2.05;;;;;;;;;;6337063;22;47809;-81
2022/12/30 15:39:07;;;;;;;6.05;2.47;;;;;;;;;;6338999;22;20027;-82
2022/12/30 15:41:35;;;;;;;5.53;3.00;;;;;;;;;;6340252;22;20030;-79
2022/12/30 15:44:03;;;;;;;6.95;4.03;;;;;;;;;;6338920;22;20110;-81
2022/12/30 15:46:32;;;;;;;7.00;3.88;;;;;;;;;;6311644;22;20027;-82
2022/12/30 15:49:18;;;;;;;6.68;3.58;;;;;;;;;;6339448;22;20019;-82
2022/12/30 15:51:47;;;;;;;7.20;3.15;;;;;;;;;;6313580;22;20232;-82
2022/12/30 15:54:18;;;;;;;600.40;296.80;;;;;;;;;;6337772;22;20023;-80